Other Surface Observations
Issued by NWS Great Falls, MT

Home | Current Version | Previous Version | Text Only | Print | Product List | Glossary On
Versions: 1 2 3 4 5 6 7 8 9 10 11 12 13 14 15 16 17 18 19 20 21 22 23 24 25 26 27 28 29 30 31 32 33 34 35 36 37 38 39 40 41 42 43 44 45 46 47 48 49 50
673
SXUS55 KTFX 310744
OSOTFX
AREA AWOS OBSERVATIONS
NATIONAL WEATHER SERVICE GREAT FALLS MT
0144 AM MDT SUN JUL 31 2016

METAR KPWD 310745Z AUTO 10006KT 7SM 19/14 A2970 RMK PLENTYWOOD
METAR KPO1 310745Z AUTO 23004KT 10SM 22/14 A2967 RMK POPLAR
METAR K1S3 310745Z AUTO 15008KT 10SM 26/09 A2965 RMK FORSYTH
METAR KS71 310745Z AUTO 09006KT 10SM 19/16 A2961 RMK CHINOOK
METAR K38S 310745Z AUTO 00000KT 10SM 18/04 A2990 RMK DEER LODGE
METAR K6S5 310745Z AUTO 00000KT 10SM 17/08 A2983 RMK HAMILTON
METAR KS59 310745Z AUTO 14003KT 10SM 18/05 A2971 RMK LIBBY
METAR K88M 310745Z AUTO 00000KT 10SM 17/05 A2969 RMK EUREKA



USA.gov is the U.S. government's official web portal to all federal, state and local government web resources and services.